Cedar Grove, Louisiana
Current Conditions -  °F | °C
As of 7:56 AM on Tuesday 27 Jan 2015 (Local Time) from KSHV Reporting Station
Few Clouds Few Clouds  
Wind Chill: 41°   Ceiling: Unl
Heat Index: 41°   Visibility: 10mi
Dew Point: 38°   Wind: 0mph
Humidity: 89%   Direction: NA
Pressure: 30.12"   Gusts: NA
Location:  32.3873°N, 93.7356°W
Report Text: KSHV 271356Z 00000KT 10SM FEW280 05/03 A3012 RMK AO2 SLP199 T00500033
Loading
Personal Weather Stations






























Interactive Weather Map New forecast layout! Learn more

10-Day Weather Forecast

Advertisements
Track Severe Weather on mobile